Time;durP1;ratioP1;P1;durP2;ratioP2;P2;SDS_P1;SDS_P2;PMS_P1;PMS_P2;Temp;Humidity;BMP_temperature;BMP_pressure;BME280_temperature;BME280_humidity;BME280_pressure;Samples;Min_cycle;Max_cycle;Signal;HPM_P1;HPM_P2
2021/12/17 10:28:36;;;;;;;;;48.67;37.00;;;;;;;;5311331;22;75252;-80
2021/12/17 10:31:01;;;;;;;;;42.33;36.00;;;;;;;;5088230;27;45271;-80
2021/12/17 10:33:28;;;;;;;;;53.50;41.25;;;;;;;;5090892;27;45266;-80
2021/12/17 10:35:54;;;;;;;;;56.75;45.75;;;;;;;;5103210;27;45180;-81
2021/12/17 10:38:24;;;;;;;;;77.75;66.50;;;;;;;;5088659;27;46160;-81
2021/12/17 10:41:12;;;;;;;;;74.75;59.50;;;;;;;;5082301;28;45314;-81
2021/12/17 10:43:41;;;;;;;;;103.00;86.50;;;;;;;;5063663;28;45485;-80
2021/12/17 10:46:10;;;;;;;;;80.25;65.00;;;;;;;;5089802;27;45490;-81
2021/12/17 10:48:50;;;;;;;;;65.25;49.25;;;;;;;;5102634;27;45287;-80
2021/12/17 10:51:32;;;;;;;;;45.25;36.50;;;;;;;;5102576;27;45290;-81
2021/12/17 10:53:59;;;;;;;;;45.33;35.00;;;;;;;;5084351;27;45259;-80
2021/12/17 10:56:30;;;;;;;;;48.25;38.25;;;;;;;;5084075;27;45401;-81
2021/12/17 10:58:56;;;;;;;;;48.50;38.75;;;;;;;;5102037;27;45296;-80
2021/12/17 11:01:35;;;;;;;;;46.25;39.75;;;;;;;;5103912;27;45285;-83
2021/12/17 11:04:08;;;;;;;;;43.75;37.25;;;;;;;;5069509;28;45448;-82
2021/12/17 11:06:40;;;;;;;;;47.50;39.25;;;;;;;;5062762;28;47394;-83
2021/12/17 11:09:06;;;;;;;;;48.75;39.00;;;;;;;;5081684;28;45876;-84
2021/12/17 11:11:33;;;;;;;;;45.25;36.75;;;;;;;;5082067;28;45377;-83
2021/12/17 11:14:00;;;;;;;;;38.67;33.00;;;;;;;;5081729;28;45230;-81
2021/12/17 11:16:27;;;;;;;;;34.00;32.00;;;;;;;;5081673;28;45209;-83
2021/12/17 11:18:52;;;;;;;;;34.67;32.33;;;;;;;;5081721;28;45480;-84
2021/12/17 11:21:18;;;;;;;;;33.00;26.67;;;;;;;;5081740;28;45333;-83
2021/12/17 11:23:43;;;;;;;;;40.00;33.00;;;;;;;;5063518;28;45271;-83
2021/12/17 11:26:08;;;;;;;;;50.75;42.00;;;;;;;;5082266;28;45295;-81
2021/12/17 11:28:34;;;;;;;;;30.00;26.00;;;;;;;;5064682;28;48300;-82
2021/12/17 11:30:59;;;;;;;;;171.00;144.67;;;;;;;;5064864;28;45276;-81
2021/12/17 11:33:25;;;;;;;;;37.67;33.67;;;;;;;;5063720;28;45352;-82
2021/12/17 11:35:50;;;;;;;;;27.67;24.67;;;;;;;;5082395;28;45287;-84
2021/12/17 11:38:19;;;;;;;;;22.67;22.00;;;;;;;;5097424;27;46687;-82
2021/12/17 11:41:10;;;;;;;;;26.00;25.33;;;;;;;;5102272;27;45222;-81
2021/12/17 11:43:57;;;;;;;;;29.33;24.33;;;;;;;;5084829;27;45464;-82
2021/12/17 11:46:27;;;;;;;;;35.67;30.00;;;;;;;;5101585;27;45271;-83
2021/12/17 11:49:04;;;;;;;;;38.00;33.00;;;;;;;;5083369;27;48205;-85
2021/12/17 11:51:31;;;;;;;;;62.25;49.00;;;;;;;;5102037;27;45370;-80
2021/12/17 11:56:38;;;;;;;;;34.67;29.67;;;;;;;;5081728;27;73944;-79
2021/12/17 11:59:04;;;;;;;;;65.50;51.00;;;;;;;;5082855;27;47339;-80
2021/12/17 12:01:46;;;;;;;;;27.33;27.00;;;;;;;;5103575;27;45289;-80
2021/12/17 12:04:20;;;;;;;;;38.33;35.00;;;;;;;;5103605;27;45494;-80
2021/12/17 12:06:58;;;;;;;;;47.75;39.25;;;;;;;;5085162;27;47399;-79
2021/12/17 12:09:42;;;;;;;;;71.00;56.75;;;;;;;;5101938;27;45359;-81
2021/12/17 12:12:08;;;;;;;;;82.25;73.50;;;;;;;;5102155;27;45365;-82
2021/12/17 12:14:33;;;;;;;;;108.25;94.25;;;;;;;;5101299;27;45232;-82
2021/12/17 12:16:58;;;;;;;;;45.50;35.25;;;;;;;;5101027;27;45287;-81
2021/12/17 12:19:43;;;;;;;;;112.50;102.75;;;;;;;;5101269;27;46545;-81
2021/12/17 12:22:09;;;;;;;;;66.00;51.50;;;;;;;;5063188;28;45445;-80
2021/12/17 12:24:34;;;;;;;;;68.50;53.75;;;;;;;;5058659;28;45382;-80
2021/12/17 12:26:59;;;;;;;;;116.75;102.25;;;;;;;;5042408;28;46066;-81
2021/12/17 12:29:26;;;;;;;;;76.75;62.75;;;;;;;;5041719;28;47308;-82
2021/12/17 12:32:12;;;;;;;;;43.33;36.00;;;;;;;;5063971;28;45259;-83
2021/12/17 12:34:39;;;;;;;;;38.67;33.00;;;;;;;;5060959;28;45222;-82
2021/12/17 12:37:07;;;;;;;;;24.33;24.33;;;;;;;;5053240;27;45214;-81
2021/12/17 12:39:33;;;;;;;;;22.00;21.67;;;;;;;;5082653;27;47415;-82
2021/12/17 12:42:03;;;;;;;;;25.33;25.00;;;;;;;;5082320;27;45668;-79
2021/12/17 12:44:44;;;;;;;;;28.00;26.00;;;;;;;;5100016;27;45365;-83
2021/12/17 12:47:12;;;;;;;;;27.33;24.67;;;;;;;;5100269;27;45380;-79
2021/12/17 12:49:41;;;;;;;;;23.33;22.67;;;;;;;;5100406;27;45303;-80
2021/12/17 12:52:20;;;;;;;;;22.00;22.00;;;;;;;;5083149;27;45618;-81
2021/12/17 12:54:50;;;;;;;;;37.33;34.33;;;;;;;;5103881;27;45294;-80
2021/12/17 12:57:26;;;;;;;;;75.25;59.00;;;;;;;;5085091;27;47133;-81
2021/12/17 12:59:52;;;;;;;;;65.00;50.50;;;;;;;;5083734;27;47118;-80
2021/12/17 13:02:18;;;;;;;;;44.33;37.00;;;;;;;;5100630;27;45443;-79
2021/12/17 13:04:43;;;;;;;;;55.00;41.75;;;;;;;;5101308;27;45491;-80
2021/12/17 13:07:08;;;;;;;;;84.00;76.25;;;;;;;;5100430;27;45452;-80
2021/12/17 13:09:40;;;;;;;;;90.00;78.75;;;;;;;;5082049;27;48095;-81
2021/12/17 13:12:07;;;;;;;;;25.67;24.33;;;;;;;;5082607;27;46318;-80
2021/12/17 13:14:33;;;;;;;;;87.00;69.75;;;;;;;;5100738;27;45345;-81
2021/12/17 13:17:51;;;;;;;;;150.00;131.67;;;;;;;;5082949;27;46190;-81
2021/12/17 13:23:01;;;;;;;;;64.00;48.75;;;;;;;;5052334;27;45535;-81
2021/12/17 13:25:27;;;;;;;;;55.50;44.25;;;;;;;;5100888;27;45365;-81
2021/12/17 13:27:55;;;;;;;;;55.75;42.75;;;;;;;;5100612;27;45337;-81
2021/12/17 13:30:27;;;;;;;;;20.00;19.67;;;;;;;;5104186;27;45285;-80
2021/12/17 13:32:52;;;;;;;;;41.33;34.33;;;;;;;;5104073;27;45215;-81
2021/12/17 13:35:18;;;;;;;;;34.33;31.33;;;;;;;;5104135;27;45237;-80
2021/12/17 13:37:44;;;;;;;;;90.25;76.00;;;;;;;;5093074;27;45237;-81
2021/12/17 13:40:11;;;;;;;;;100.00;89.25;;;;;;;;5084144;28;46498;-82
2021/12/17 13:42:46;;;;;;;;;90.75;75.25;;;;;;;;5083902;28;45420;-82
2021/12/17 13:45:13;;;;;;;;;44.25;34.75;;;;;;;;5065459;28;45313;-82
2021/12/17 13:47:38;;;;;;;;;94.00;79.00;;;;;;;;5065734;28;46295;-82
2021/12/17 13:50:08;;;;;;;;;71.20;54.20;;;;;;;;5065279;28;47398;-81
2021/12/17 13:52:35;;;;;;;;;85.25;73.25;;;;;;;;5083190;28;45218;-81
2021/12/17 13:55:02;;;;;;;;;67.00;52.25;;;;;;;;5083210;28;45301;-79
2021/12/17 13:57:29;;;;;;;;;70.50;56.00;;;;;;;;5064761;28;46043;-81
2021/12/17 14:00:03;;;;;;;;;54.00;44.00;;;;;;;;5082762;28;45373;-84
2021/12/17 14:02:32;;;;;;;;;73.00;56.75;;;;;;;;5082671;28;45339;-83
2021/12/17 14:05:04;;;;;;;;;87.75;76.25;;;;;;;;5064566;28;45232;-82
2021/12/17 14:07:30;;;;;;;;;70.00;51.00;;;;;;;;5064719;28;46361;-82
2021/12/17 14:09:59;;;;;;;;;40.67;32.00;;;;;;;;5064493;28;48613;-86
2021/12/17 14:12:33;;;;;;;;;45.00;35.00;;;;;;;;5064792;28;45289;-85
2021/12/17 14:14:59;;;;;;;;;75.00;62.75;;;;;;;;5082754;28;45146;-85
2021/12/17 14:17:31;;;;;;;;;61.25;46.75;;;;;;;;5064527;28;47125;-84
2021/12/17 14:20:00;;;;;;;;;73.00;57.50;;;;;;;;5064311;28;47238;-82
2021/12/17 14:22:27;;;;;;;;;61.75;45.50;;;;;;;;5082598;28;45292;-80
2021/12/17 14:24:53;;;;;;;;;64.25;48.50;;;;;;;;5064576;28;45331;-84
2021/12/17 14:27:19;;;;;;;;;29.00;27.00;;;;;;;;5082414;28;45545;-83
2021/12/17 14:29:44;;;;;;;;;52.25;39.25;;;;;;;;5081894;28;45322;-84
2021/12/17 14:32:19;;;;;;;;;73.50;60.25;;;;;;;;5064240;28;45324;-84
2021/12/17 14:34:44;;;;;;;;;70.25;53.25;;;;;;;;5064723;28;45342;-84
2021/12/17 14:37:10;;;;;;;;;54.25;42.00;;;;;;;;5087993;27;45496;-83
2021/12/17 14:39:37;;;;;;;;;54.00;41.75;;;;;;;;5103365;27;46208;-84
2021/12/17 14:42:05;;;;;;;;;39.67;34.33;;;;;;;;5103155;27;45257;-84
2021/12/17 14:44:40;;;;;;;;;68.50;51.00;;;;;;;;5084326;27;45490;-83
2021/12/17 15:05:22;;;;;;;;;68.75;51.25;;;;;;;;5102399;27;45326;-80
2021/12/17 15:07:48;;;;;;;;;70.75;57.50;;;;;;;;5102326;27;45329;-80
2021/12/17 15:10:14;;;;;;;;;70.50;56.75;;;;;;;;5102220;27;45316;-80
2021/12/17 15:12:39;;;;;;;;;51.75;41.00;;;;;;;;5084171;27;45381;-80
2021/12/17 15:15:13;;;;;;;;;71.50;55.00;;;;;;;;5102141;27;45232;-80
2021/12/17 15:17:39;;;;;;;;;55.75;45.25;;;;;;;;5084894;27;46025;-85
2021/12/17 15:20:06;;;;;;;;;59.25;45.50;;;;;;;;5103263;27;46211;-82
2021/12/17 15:22:31;;;;;;;;;64.00;48.75;;;;;;;;5103460;27;45267;-81
2021/12/17 15:24:56;;;;;;;;;70.25;54.50;;;;;;;;5084858;27;45260;-85
2021/12/17 15:27:22;;;;;;;;;58.25;45.25;;;;;;;;5102497;27;45292;-83
2021/12/17 15:29:47;;;;;;;;;39.67;33.33;;;;;;;;5105035;27;45247;-84
2021/12/17 15:32:13;;;;;;;;;62.50;49.25;;;;;;;;5102532;27;45154;-82
2021/12/17 15:34:38;;;;;;;;;40.33;34.00;;;;;;;;5103033;27;45258;-86
2021/12/17 15:37:03;;;;;;;;;23.67;18.67;;;;;;;;5098284;27;45262;-81
2021/12/17 15:39:28;;;;;;;;;24.67;23.00;;;;;;;;5064077;28;47252;-82
2021/12/17 15:41:54;;;;;;;;;51.50;36.00;;;;;;;;5081704;28;45394;-81
2021/12/17 15:44:19;;;;;;;;;41.33;34.00;;;;;;;;5081951;28;45530;-83
2021/12/17 15:46:45;;;;;;;;;53.25;42.00;;;;;;;;5081605;28;45243;-83
2021/12/17 15:49:10;;;;;;;;;60.00;47.00;;;;;;;;5081196;28;45192;-84
2021/12/17 15:51:36;;;;;;;;;58.25;45.25;;;;;;;;5062587;28;45307;-83
2021/12/17 15:54:02;;;;;;;;;38.33;33.00;;;;;;;;5081307;28;45263;-82
2021/12/17 15:56:28;;;;;;;;;29.00;27.00;;;;;;;;5064781;28;46382;-82
2021/12/17 15:58:53;;;;;;;;;35.67;31.67;;;;;;;;5085019;28;46152;-83
2021/12/17 16:01:18;;;;;;;;;42.00;33.67;;;;;;;;5064211;28;45989;-83
2021/12/17 16:03:44;;;;;;;;;27.67;26.00;;;;;;;;5051100;28;45439;-80
2021/12/17 16:06:10;;;;;;;;;27.00;26.33;;;;;;;;5072302;28;45391;-81
2021/12/17 16:08:42;;;;;;;;;29.33;28.00;;;;;;;;5069698;28;46536;-87
2021/12/17 16:21:38;;;;;;;;;21.67;21.33;;;;;;;;5065822;28;45280;-80
2021/12/17 16:24:03;;;;;;;;;18.67;18.00;;;;;;;;5055740;28;45353;-80
2021/12/17 16:26:29;;;;;;;;;19.00;17.00;;;;;;;;5064651;28;46044;-80
2021/12/17 16:28:54;;;;;;;;;19.67;18.33;;;;;;;;5071315;28;46586;-80
2021/12/17 16:31:21;;;;;;;;;18.33;16.33;;;;;;;;5087748;28;45289;-80
2021/12/17 16:33:47;;;;;;;;;18.67;15.33;;;;;;;;5096428;27;44669;-81
2021/12/17 16:36:12;;;;;;;;;20.67;18.00;;;;;;;;5101217;28;45369;-80
2021/12/17 16:38:38;;;;;;;;;26.33;25.00;;;;;;;;5072625;28;47274;-83
2021/12/17 16:41:04;;;;;;;;;23.00;21.00;;;;;;;;5065062;28;45265;-84
2021/12/17 16:43:30;;;;;;;;;22.67;20.67;;;;;;;;5072378;28;45227;-84
2021/12/17 16:48:30;;;;;;;;;23.33;21.67;;;;;;;;5073396;28;45373;-84
2021/12/17 16:50:55;;;;;;;;;24.00;21.67;;;;;;;;5077519;28;45267;-81
2021/12/17 16:53:20;;;;;;;;;22.67;22.33;;;;;;;;5084125;28;45255;-80
2021/12/17 16:55:45;;;;;;;;;23.00;21.67;;;;;;;;5083170;28;45335;-81
2021/12/17 16:58:10;;;;;;;;;27.33;27.33;;;;;;;;5081978;28;46662;-80
2021/12/17 17:00:36;;;;;;;;;23.33;22.33;;;;;;;;5063566;28;45227;-79
2021/12/17 17:03:01;;;;;;;;;44.75;37.25;;;;;;;;5080157;27;45485;-82
2021/12/17 17:05:27;;;;;;;;;50.50;40.25;;;;;;;;5082353;28;45354;-81
2021/12/17 17:07:52;;;;;;;;;48.75;41.75;;;;;;;;5082839;28;45408;-80
2021/12/17 17:10:19;;;;;;;;;44.50;36.50;;;;;;;;5062007;28;45403;-83
2021/12/17 17:12:48;;;;;;;;;71.00;55.50;;;;;;;;5081340;28;45417;-80
2021/12/17 17:15:13;;;;;;;;;63.25;51.00;;;;;;;;5081296;28;45433;-82
2021/12/17 17:17:39;;;;;;;;;48.50;39.25;;;;;;;;5065432;28;47111;-84
2021/12/17 17:20:04;;;;;;;;;34.75;32.00;;;;;;;;5086560;28;45303;-83
2021/12/17 17:22:29;;;;;;;;;31.50;29.50;;;;;;;;5067936;28;45288;-83
2021/12/17 17:24:55;;;;;;;;;38.75;34.00;;;;;;;;5065968;28;45971;-80
2021/12/17 17:27:20;;;;;;;;;32.75;32.00;;;;;;;;5082733;28;46363;-79
2021/12/17 17:29:48;;;;;;;;;32.75;31.00;;;;;;;;5081329;28;45323;-80
2021/12/17 17:32:13;;;;;;;;;27.25;23.50;;;;;;;;5079830;28;45348;-80
2021/12/17 17:34:38;;;;;;;;;31.33;29.00;;;;;;;;5061453;28;46876;-78
2021/12/17 17:37:04;;;;;;;;;30.25;29.25;;;;;;;;5084884;27;45432;-78
2021/12/17 17:39:29;;;;;;;;;32.00;31.25;;;;;;;;5100028;27;45299;-79
2021/12/17 17:41:54;;;;;;;;;34.25;31.25;;;;;;;;5081786;27;45289;-79
2021/12/17 17:44:19;;;;;;;;;28.50;25.75;;;;;;;;5099434;27;45293;-82
2021/12/17 17:46:45;;;;;;;;;32.75;29.00;;;;;;;;5099724;27;46510;-82
2021/12/17 17:49:11;;;;;;;;;33.25;31.75;;;;;;;;5081378;27;45322;-79
2021/12/17 17:51:36;;;;;;;;;33.25;29.25;;;;;;;;5099937;27;45868;-77
2021/12/17 17:54:01;;;;;;;;;26.33;26.00;;;;;;;;5099893;27;45297;-76
2021/12/17 17:56:27;;;;;;;;;34.75;31.25;;;;;;;;5099650;27;45633;-78
2021/12/17 17:58:52;;;;;;;;;30.50;29.50;;;;;;;;5099775;27;45281;-78
2021/12/17 18:01:17;;;;;;;;;38.00;34.25;;;;;;;;5081486;27;45516;-78
2021/12/17 18:03:43;;;;;;;;;45.00;36.75;;;;;;;;5099665;27;45403;-78
2021/12/17 18:06:08;;;;;;;;;41.00;35.25;;;;;;;;5081412;27;46958;-77
2021/12/17 18:08:33;;;;;;;;;27.75;25.50;;;;;;;;5099660;27;45251;-79
2021/12/17 18:10:59;;;;;;;;;38.50;34.25;;;;;;;;5081449;27;45354;-77
2021/12/17 18:13:25;;;;;;;;;37.50;32.00;;;;;;;;5080841;27;45852;-79
2021/12/17 18:15:52;;;;;;;;;32.50;32.00;;;;;;;;5100715;27;46412;-78
2021/12/17 18:18:17;;;;;;;;;35.25;32.50;;;;;;;;5102849;27;45435;-77
2021/12/17 18:20:43;;;;;;;;;39.25;33.75;;;;;;;;5103061;27;45439;-77
2021/12/17 18:23:09;;;;;;;;;37.50;33.75;;;;;;;;5102756;27;45309;-78
2021/12/17 18:25:34;;;;;;;;;31.00;29.25;;;;;;;;5084385;27;46005;-78
2021/12/17 18:27:59;;;;;;;;;30.50;28.75;;;;;;;;5084309;27;45962;-77
2021/12/17 18:30:25;;;;;;;;;32.50;31.50;;;;;;;;5102627;27;45285;-77
2021/12/17 18:32:56;;;;;;;;;38.00;34.25;;;;;;;;5084224;27;46161;-78
2021/12/17 18:35:22;;;;;;;;;18.25;18.00;;;;;;;;5084152;27;47404;-77
2021/12/17 18:37:48;;;;;;;;;33.25;31.25;;;;;;;;5091015;27;45494;-76
2021/12/17 18:40:19;;;;;;;;;35.75;30.50;;;;;;;;5064128;28;45330;-77
2021/12/17 18:45:29;;;;;;;;;32.50;30.00;;;;;;;;5081876;28;45642;-76
2021/12/17 18:47:54;;;;;;;;;28.75;28.00;;;;;;;;5063905;28;45923;-77
2021/12/17 18:50:19;;;;;;;;;40.50;32.25;;;;;;;;5082282;28;45323;-76
2021/12/17 18:52:44;;;;;;;;;30.25;28.50;;;;;;;;5081939;28;45353;-78
2021/12/17 18:55:09;;;;;;;;;28.75;28.00;;;;;;;;5081892;28;45443;-78
2021/12/17 18:57:35;;;;;;;;;32.50;30.00;;;;;;;;5082049;28;45287;-76
2021/12/17 19:00:00;;;;;;;;;29.75;27.75;;;;;;;;5081902;28;45509;-77
2021/12/17 19:02:26;;;;;;;;;30.00;26.00;;;;;;;;5063356;28;47094;-77
2021/12/17 19:04:51;;;;;;;;;32.75;31.00;;;;;;;;5063502;28;47175;-76
2021/12/17 19:07:16;;;;;;;;;32.75;26.00;;;;;;;;5063925;28;45313;-76
2021/12/17 19:09:42;;;;;;;;;36.75;29.50;;;;;;;;5081924;28;45318;-78
2021/12/17 19:12:07;;;;;;;;;37.50;29.25;;;;;;;;5063554;28;47200;-77
2021/12/17 19:14:34;;;;;;;;;42.00;34.00;;;;;;;;5081353;28;46408;-77
2021/12/17 19:16:59;;;;;;;;;27.50;27.50;;;;;;;;5081612;28;45307;-77
2021/12/17 19:24:24;;;;;;;;;29.00;24.00;;;;;;;;5081486;28;45323;-77
2021/12/17 19:26:50;;;;;;;;;30.50;30.25;;;;;;;;5080523;28;45400;-78
2021/12/17 19:29:15;;;;;;;;;32.50;29.50;;;;;;;;5062941;28;45505;-76
2021/12/17 19:31:42;;;;;;;;;42.25;34.50;;;;;;;;5063121;28;46312;-76
2021/12/17 19:34:08;;;;;;;;;39.00;35.00;;;;;;;;5081430;28;46522;-76
2021/12/17 19:36:33;;;;;;;;;40.75;33.50;;;;;;;;5082317;27;45199;-78
2021/12/17 19:38:59;;;;;;;;;54.00;42.75;;;;;;;;5101087;27;45366;-78
2021/12/17 19:41:24;;;;;;;;;42.50;38.00;;;;;;;;5100986;27;45747;-77
2021/12/17 19:43:50;;;;;;;;;40.75;35.75;;;;;;;;5082691;27;47337;-77
2021/12/17 19:46:22;;;;;;;;;37.75;33.25;;;;;;;;5101769;27;45314;-76
2021/12/17 19:49:09;;;;;;;;;42.00;35.50;;;;;;;;5101882;27;45265;-78
2021/12/17 19:51:35;;;;;;;;;50.50;41.50;;;;;;;;5101500;27;45246;-78
2021/12/17 19:54:00;;;;;;;;;47.50;40.25;;;;;;;;5102355;27;45156;-80
2021/12/17 19:56:25;;;;;;;;;49.75;41.00;;;;;;;;5064878;28;45330;-77
2021/12/17 19:58:51;;;;;;;;;44.25;37.75;;;;;;;;5068187;28;45497;-77
2021/12/17 20:01:17;;;;;;;;;38.25;35.25;;;;;;;;5049784;28;45940;-77
2021/12/17 20:03:49;;;;;;;;;39.00;33.50;;;;;;;;5071594;28;46237;-77
2021/12/17 20:06:15;;;;;;;;;43.50;34.75;;;;;;;;5072461;28;45524;-78
2021/12/17 20:08:40;;;;;;;;;39.50;34.25;;;;;;;;5058457;28;45383;-78
2021/12/17 20:11:05;;;;;;;;;38.25;34.75;;;;;;;;5057114;28;46290;-78
2021/12/17 20:13:30;;;;;;;;;41.75;36.00;;;;;;;;5060155;28;47838;-78
2021/12/17 20:16:00;;;;;;;;;37.25;33.50;;;;;;;;5069903;28;45291;-79
2021/12/17 20:18:25;;;;;;;;;39.25;34.00;;;;;;;;5076126;28;45480;-78
2021/12/17 20:20:50;;;;;;;;;37.50;33.00;;;;;;;;5063874;28;45382;-78
2021/12/17 20:23:20;;;;;;;;;39.50;34.50;;;;;;;;5061945;28;48657;-78
2021/12/17 20:25:45;;;;;;;;;40.75;33.25;;;;;;;;5058846;28;45316;-79
2021/12/17 20:28:10;;;;;;;;;44.50;37.25;;;;;;;;5071227;28;45315;-78
2021/12/17 20:30:35;;;;;;;;;40.25;35.50;;;;;;;;5059378;28;46612;-79
2021/12/17 20:33:01;;;;;;;;;33.50;28.50;;;;;;;;5070302;28;46691;-79
2021/12/17 20:35:26;;;;;;;;;44.25;37.00;;;;;;;;5059587;28;45295;-77
2021/12/17 20:37:51;;;;;;;;;52.25;42.75;;;;;;;;5084951;27;45227;-78
2021/12/17 20:40:20;;;;;;;;;52.75;44.25;;;;;;;;5063840;28;45974;-77
2021/12/17 20:45:13;;;;;;;;;63.75;51.00;;;;;;;;5068792;28;45363;-78
2021/12/17 20:47:38;;;;;;;;;63.00;51.25;;;;;;;;5069797;28;45454;-78
2021/12/17 20:50:04;;;;;;;;;71.75;55.50;;;;;;;;5064370;28;47245;-79
2021/12/17 20:52:29;;;;;;;;;70.50;55.00;;;;;;;;5065717;28;47932;-78
2021/12/17 20:54:55;;;;;;;;;72.00;56.00;;;;;;;;5077672;28;45309;-79
2021/12/17 20:57:20;;;;;;;;;67.25;52.75;;;;;;;;5069119;28;45308;-78
2021/12/17 20:59:45;;;;;;;;;60.00;48.00;;;;;;;;5068540;28;45374;-79
2021/12/17 21:02:11;;;;;;;;;50.50;42.50;;;;;;;;5068644;28;46583;-78
2021/12/17 21:04:36;;;;;;;;;48.25;40.25;;;;;;;;5058136;28;45425;-79
2021/12/17 21:07:01;;;;;;;;;49.25;40.50;;;;;;;;5069786;28;45409;-78
2021/12/17 21:09:27;;;;;;;;;52.75;40.75;;;;;;;;5078386;28;45343;-77
2021/12/17 21:11:57;;;;;;;;;46.50;39.75;;;;;;;;5079498;28;45427;-77
2021/12/17 21:14:22;;;;;;;;;44.00;36.25;;;;;;;;5077196;28;45340;-77
2021/12/17 21:16:49;;;;;;;;;29.75;27.50;;;;;;;;5060964;28;45327;-76
2021/12/17 21:19:15;;;;;;;;;50.25;39.75;;;;;;;;5061022;28;47166;-77
2021/12/17 21:21:40;;;;;;;;;51.25;43.00;;;;;;;;5079143;28;45207;-76
2021/12/17 21:24:08;;;;;;;;;49.50;41.00;;;;;;;;5061306;28;45276;-77
2021/12/17 21:26:34;;;;;;;;;45.25;38.00;;;;;;;;5079839;28;45263;-77
2021/12/17 21:28:59;;;;;;;;;37.75;34.75;;;;;;;;5060864;28;47238;-77
2021/12/17 21:31:25;;;;;;;;;44.75;35.75;;;;;;;;5079667;28;45417;-76
2021/12/17 21:33:50;;;;;;;;;47.75;40.00;;;;;;;;5079809;28;45293;-76
2021/12/17 21:36:17;;;;;;;;;52.25;43.00;;;;;;;;5079828;28;45224;-77
2021/12/17 21:38:44;;;;;;;;;51.75;40.50;;;;;;;;5080581;27;46206;-76
2021/12/17 21:41:09;;;;;;;;;53.75;43.25;;;;;;;;5081675;27;47122;-77
2021/12/17 21:43:37;;;;;;;;;45.50;37.50;;;;;;;;5099714;27;45288;-76
2021/12/17 21:46:02;;;;;;;;;40.25;35.00;;;;;;;;5100297;27;45361;-77
2021/12/17 21:48:28;;;;;;;;;42.75;35.25;;;;;;;;5099913;27;45281;-77
2021/12/17 21:50:53;;;;;;;;;47.00;36.50;;;;;;;;5101799;27;45391;-76
2021/12/17 21:53:19;;;;;;;;;41.25;36.75;;;;;;;;5103548;27;45338;-77
2021/12/17 21:55:44;;;;;;;;;40.00;34.50;;;;;;;;5103690;27;45475;-76
2021/12/17 21:58:09;;;;;;;;;37.50;31.50;;;;;;;;5103192;27;45522;-76
2021/12/17 22:00:34;;;;;;;;;41.75;36.25;;;;;;;;5103401;27;45409;-76
2021/12/17 22:03:00;;;;;;;;;38.00;33.50;;;;;;;;5103212;27;45385;-76
2021/12/17 22:05:33;;;;;;;;;36.50;34.00;;;;;;;;5085216;27;45401;-76
2021/12/17 22:07:59;;;;;;;;;40.50;35.50;;;;;;;;5103352;27;45304;-76
2021/12/17 22:10:24;;;;;;;;;38.50;34.00;;;;;;;;5103251;27;45377;-76
2021/12/17 22:12:50;;;;;;;;;39.00;36.00;;;;;;;;5103122;27;45311;-76
2021/12/17 22:15:16;;;;;;;;;34.75;30.25;;;;;;;;5103490;27;45297;-76
2021/12/17 22:17:42;;;;;;;;;35.25;34.50;;;;;;;;5084828;27;46145;-76
2021/12/17 22:20:25;;;;;;;;;39.00;35.75;;;;;;;;5103233;27;46334;-77
2021/12/17 22:22:51;;;;;;;;;41.00;34.25;;;;;;;;5103146;27;45330;-76
2021/12/17 22:25:17;;;;;;;;;40.75;32.75;;;;;;;;5084756;27;45269;-76
2021/12/17 22:27:43;;;;;;;;;42.25;36.25;;;;;;;;5084426;27;46136;-76
2021/12/17 22:30:08;;;;;;;;;37.00;35.25;;;;;;;;5102562;27;45452;-76
2021/12/17 22:32:33;;;;;;;;;49.00;38.00;;;;;;;;5084738;27;45181;-76
2021/12/17 22:34:59;;;;;;;;;36.75;34.75;;;;;;;;5103185;27;45189;-77
2021/12/17 22:37:25;;;;;;;;;43.75;38.00;;;;;;;;5094533;27;45238;-76
2021/12/17 22:39:50;;;;;;;;;43.00;34.75;;;;;;;;5082335;28;45884;-77
2021/12/17 22:42:15;;;;;;;;;38.00;35.25;;;;;;;;5082250;28;45182;-76
2021/12/17 22:44:40;;;;;;;;;33.50;31.50;;;;;;;;5063852;28;45256;-76
2021/12/17 22:47:06;;;;;;;;;34.75;32.50;;;;;;;;5082249;28;45201;-76
2021/12/17 22:49:31;;;;;;;;;34.75;32.00;;;;;;;;5063966;28;48551;-76
2021/12/17 22:51:56;;;;;;;;;32.25;28.75;;;;;;;;5063905;28;45247;-76
2021/12/17 22:54:21;;;;;;;;;32.50;31.00;;;;;;;;5064393;28;45158;-76
2021/12/17 22:56:47;;;;;;;;;29.50;29.50;;;;;;;;5082283;28;45204;-76
2021/12/17 22:59:12;;;;;;;;;32.25;32.25;;;;;;;;5081893;28;45612;-76
2021/12/17 23:01:39;;;;;;;;;33.25;31.50;;;;;;;;5062615;28;45327;-76
2021/12/17 23:04:17;;;;;;;;;30.25;28.75;;;;;;;;5082059;28;45409;-76
2021/12/17 23:06:45;;;;;;;;;37.00;30.75;;;;;;;;5063612;28;46402;-76
2021/12/17 23:09:17;;;;;;;;;37.00;31.75;;;;;;;;5081741;28;46172;-76
2021/12/17 23:11:45;;;;;;;;;32.75;31.75;;;;;;;;5082017;28;45162;-77
2021/12/17 23:14:11;;;;;;;;;37.25;34.25;;;;;;;;5081730;28;45283;-77
2021/12/17 23:16:38;;;;;;;;;35.25;32.75;;;;;;;;5081789;28;45287;-76
2021/12/17 23:19:03;;;;;;;;;30.25;27.50;;;;;;;;5063465;28;46194;-76
2021/12/17 23:21:29;;;;;;;;;31.50;29.75;;;;;;;;5063280;28;45339;-76
2021/12/17 23:23:54;;;;;;;;;28.75;28.25;;;;;;;;5081870;28;45275;-76
2021/12/17 23:26:19;;;;;;;;;33.50;31.50;;;;;;;;5063577;28;46977;-77
2021/12/17 23:28:45;;;;;;;;;31.75;31.25;;;;;;;;5081093;28;45388;-76
2021/12/17 23:31:11;;;;;;;;;31.75;29.75;;;;;;;;5081689;28;45330;-76
2021/12/17 23:36:06;;;;;;;;;33.75;31.25;;;;;;;;5081407;28;45346;-76
2021/12/17 23:38:32;;;;;;;;;31.50;28.50;;;;;;;;5098889;27;46631;-76
2021/12/17 23:40:57;;;;;;;;;33.75;31.25;;;;;;;;5101835;27;45373;-76
2021/12/17 23:43:24;;;;;;;;;29.75;26.50;;;;;;;;5101608;27;45500;-76
2021/12/17 23:45:53;;;;;;;;;29.50;29.50;;;;;;;;5101782;27;45483;-75
2021/12/17 23:48:18;;;;;;;;;33.25;32.00;;;;;;;;5083282;27;47302;-76
2021/12/17 23:50:45;;;;;;;;;35.50;32.75;;;;;;;;5083289;27;45868;-76
2021/12/17 23:53:10;;;;;;;;;33.50;30.50;;;;;;;;5101966;27;45239;-76
2021/12/17 23:55:35;;;;;;;;;32.75;29.00;;;;;;;;5101606;27;45460;-76
2021/12/17 23:58:00;;;;;;;;;32.75;31.50;;;;;;;;5083199;27;47198;-77
